LPLALPPT

Guest
Details From LPLA - LAJES
To LPPT - Lisboa
Flight Number -
Tags decoded
Created
Modified
Stats Distance 876 nm / 1,623 km
Max Altitude 0 ft / 0 m
Waypoints 13
Social Downloads 1
Likes 0
Share VATSIM

Download

Looking for another format? Having issues loading an existing format? Contact us
Advertisement - Login to hide

Notes

Requested: LPLA REGLA H121 BAVAS 4000N02000W 15SNT ERPES UZ22 BUSEN EKMAR MOJ20 LI085 LI086 LPPT

Route

LPLA REGLA H121 BAVAS 4000N02000W 15SNT ERPES UZ22 BUSEN EKMAR MOJ20 LI085 LI086 LPPT

ID Type Via Altitude Latitude Longitude Leg Dist Tot Dist Heading (true) Name
O LPLA APT - 0 ft / 0 m 38.76441˚ -27.09348˚ - 0 nm - LAJES
REGLA FIX - 0 ft / 0 m 38.85528˚ -26.13889˚ 45 nm 45 nm 83° / 83° -
BAVAS FIX H121 (AWY-LO) 0 ft / 0 m 39.00000˚ -23.67833˚ 115 nm 160 nm 85° / 86° -
4000N02000W LATLON - 0 ft / 0 m 40.00000˚ -20.00000˚ 180 nm 341 nm 69° / 72° -
15SNT FIX - 0 ft / 0 m 40.00000˚ -16.00000˚ 184 nm 525 nm 89° / 91° -
ERPES FIX - 0 ft / 0 m 40.00000˚ -15.00000˚ 46 nm 571 nm 90° / 90° -
PIGOR FIX UZ22 (AWY-HI) 0 ft / 0 m 39.46722˚ -13.82139˚ 63 nm 634 nm 120° / 121° -
BUSEN FIX UZ22 (AWY-HI) 0 ft / 0 m 38.54500˚ -10.00000˚ 186 nm 820 nm 106° / 108° -
EKMAR FIX - 0 ft / 0 m 38.55750˚ -9.52139˚ 22 nm 843 nm 88° / 88° -
MOJ20 FIX - 0 ft / 0 m 38.57047˚ -9.10817˚ 19 nm 862 nm 88° / 88° -
LI085 FIX - 0 ft / 0 m 38.70291˚ -9.18046˚ 8 nm 871 nm 337° / 337° -
LI086 FIX - 0 ft / 0 m 38.75798˚ -9.14954˚ 3 nm 875 nm 24° / 24° -
O LPPT APT - 0 ft / 0 m 38.77856˚ -9.13515˚ 1 nm 876 nm 29° / 29° Lisboa

Altitude Profile

Advertisement - Login to hide

Weather


0- 5 10 15 20 25 30 35+ Temperature / ° C

Clouds and Precipitation
Forecast for 2017-12-15 00:00 UTC. Updated an hour ago

Ground ~20,000 ft ~40,000 ft Winds

LPLA

Details ICAO LPLA (TER)
Name LAJES
Region Portugal
Timezone Atlantic/Azores (UTC-1.0)
Stats Elevation 180 ft / 55 m (AMSL)
Location 38.764410° -27.093482°
Runways 1
Magnetic Variation 8.935° W

METAR

LPLA 150000Z /////KT 9999 FEW018 17/14 Q1031

Decode

TAF

TAF LPLA 142305Z 1500/1524 30008KT 9999 SCT025= TAF LPPD 142300Z 1500/1524 33008KT 9999 FEW015 SCT030 TEMPO 1500/1524 SCT012 PROB30 TEMPO 1500/1524 5000 DZ SCT005 BKN010

Decode

Departure Runways

ID Width Length Bearing (true) Bearing (mag) Surface Threshold Offset Overrun Length
15 197 ft / 60 m 10,869 ft / 3,313 m 140.81° 149.74° Asphalt 0 ft / 0 m 991 ft / 302 m
33 197 ft / 60 m 10,869 ft / 3,313 m 320.82° 329.75° Asphalt 0 ft / 0 m 1,040 ft / 317 m

LPPT

Details ICAO LPPT (LIS)
Name Lisboa
Region Portugal
Timezone Europe/Lisbon (UTC+0.0)
Stats Elevation 374 ft / 114 m (AMSL)
Location 38.778559° -9.135146°
Runways 2
Magnetic Variation 2.364° W

METAR

LPPT 150030Z 28006KT 230V320 9999 FEW008 BKN012 15/14 Q1020

Decode

TAF

TAF LPPT 142300Z 1500/1606 29008KT 9999 SCT010 BKN020 TEMPO 1500/1513 VRB03KT 3000 -RADZ BR SCT004 BKN008 BECMG 1513/1515 36010KT SCT020 BECMG 1600/1602 CAVOK

Decode

Destination Runways

ID Width Length Bearing (true) Bearing (mag) Surface Threshold Offset Overrun Length
03 148 ft / 45 m 12,518 ft / 3,815 m 22.70° 25.06° Asphalt 296 ft / 90 m 0 ft / 0 m
17 148 ft / 45 m 7,922 ft / 2,415 m 168.38° 170.74° Asphalt 0 ft / 0 m 0 ft / 0 m
21 148 ft / 45 m 12,518 ft / 3,815 m 202.72° 205.08° Asphalt 1,969 ft / 600 m 0 ft / 0 m
35 148 ft / 45 m 7,922 ft / 2,415 m 348.38° 350.74° Asphalt 492 ft / 150 m 0 ft / 0 m

Approach Navaids

Runway Type Ident Frequency Range Bearing (true) Bearing (mag) Slope Elevation
03 Localiser ILI 109.10 MHz 18 nm / 33 km 22.74° 25.10° - 335 ft / 102 m (AMSL)
03 Glidescope ILI 109.10 MHz 10 nm / 19 km 22.71° 25.07° 3.00° 419 ft / 128 m (AMSL)
03 DME ILI 109.10 MHz 18 nm / 33 km - - - 419 ft / 128 m (AMSL)
21 Localiser ILB 109.50 MHz 18 nm / 33 km 202.59° 204.95° - 335 ft / 102 m (AMSL)
21 Glidescope ILB 109.50 MHz 10 nm / 19 km 202.71° 205.07° 3.00° 423 ft / 129 m (AMSL)
21 DME ILB 109.50 MHz 18 nm / 33 km - - - 423 ft / 129 m (AMSL)

Popular Alternatives